Concrete, Texas
Current Conditions -  °F | °C
As of 6:51 PM on Friday 28 Nov 2014 (Local Time) from KVCT Reporting Station
Clear Clear  
Wind Chill: 62°   Ceiling: Unl
Heat Index: 62°   Visibility: 10mi
Dew Point: 52°   Wind: 8mph
Humidity: 70%   Direction: 170°S
Pressure: 30.16"   Gusts: NA
Location:  29.0941°N, 97.191°W
Report Text: KVCT 290051Z 17007KT 10SM CLR 17/11 A3016 RMK AO2 SLP211 T01670111
Loading
Personal Weather Stations






























Interactive Weather Map New forecast layout! Learn more

10-Day Weather Forecast

Advertisements
Track Severe Weather on mobile